Wetterdaten: Woche 22.04.13 - 28.04.13 (KW17)
Datum Zeit Temp. A. Feuchte A. Luftdruck Regen Wind Richtung Taupunkt Windchill Windben
22.04.2013 00:00 10,6 C 80 % 1014,2 hPa 0,0 l/m 0,0 km/h N 7,2 C 10,6 C 0,4 km/h
22.04.2013 01:00 9,4 C 83 % 1014,1 hPa 0,0 l/m 0,0 km/h N 6,6 C 9,4 C 0,0 km/h
22.04.2013 02:00 8,6 C 83 % 1014,0 hPa 0,0 l/m 0,0 km/h N 5,8 C 8,6 C 0,0 km/h
22.04.2013 03:00 8,0 C 83 % 1014,0 hPa 0,0 l/m 0,0 km/h N 5,2 C 8,0 C 0,0 km/h
22.04.2013 04:00 7,1 C 83 % 1014,1 hPa 0,0 l/m 0,0 km/h N 4,4 C 7,1 C 0,0 km/h
22.04.2013 05:00 6,8 C 82 % 1014,3 hPa 0,0 l/m 0,0 km/h N 3,9 C 6,8 C 0,4 km/h
22.04.2013 06:00 7,3 C 80 % 1014,6 hPa 0,0 l/m 0,0 km/h N 4,0 C 7,3 C 0,0 km/h
22.04.2013 07:00 9,2 C 77 % 1014,8 hPa 0,0 l/m 0,1 km/h N 5,4 C 9,2 C 1,2 km/h
22.04.2013 08:00 12,2 C 79 % 1014,8 hPa 0,0 l/m 2,0 km/h N 8,7 C 12,2 C 7,2 km/h
22.04.2013 09:00 15,5 C 66 % 1015,1 hPa 0,0 l/m 0,5 km/h N 9,2 C 15,5 C 4,4 km/h
22.04.2013 10:00 17,6 C 58 % 1015,1 hPa 0,0 l/m 1,8 km/h N 9,3 C 17,6 C 7,2 km/h
22.04.2013 11:00 18,2 C 57 % 1015,0 hPa 0,0 l/m 1,3 km/h N 9,6 C 18,2 C 6,4 km/h
22.04.2013 12:00 18,9 C 55 % 1014,8 hPa 0,0 l/m 2,2 km/h N 9,6 C 18,9 C 9,7 km/h
22.04.2013 13:00 20,5 C 52 % 1014,4 hPa 0,0 l/m 0,8 km/h N 10,4 C 20,5 C 7,0 km/h
22.04.2013 14:00 20,8 C 49 % 1013,8 hPa 0,0 l/m 1,6 km/h N 9,7 C 20,8 C 12,1 km/h
22.04.2013 15:00 21,6 C 47 % 1013,3 hPa 0,0 l/m 2,4 km/h N 9,8 C 21,6 C 11,3 km/h
22.04.2013 16:00 21,7 C 44 % 1012,8 hPa 0,0 l/m 1,6 km/h N 8,7 C 21,7 C 8,9 km/h
22.04.2013 17:00 21,5 C 42 % 1012,3 hPa 0,0 l/m 1,6 km/h N 8,1 C 21,5 C 10,5 km/h
22.04.2013 18:00 21,5 C 42 % 1012,4 hPa 0,0 l/m 0,8 km/h N 7,8 C 21,5 C 6,4 km/h
22.04.2013 19:00 20,5 C 49 % 1012,7 hPa 0,0 l/m 0,0 km/h N 9,2 C 20,5 C 5,7 km/h
22.04.2013 20:00 17,6 C 62 % 1013,5 hPa 0,0 l/m 0,8 km/h N 10,3 C 17,6 C 8,1 km/h
22.04.2013 21:00 15,4 C 69 % 1014,2 hPa 0,0 l/m 1,6 km/h N 9,8 C 15,4 C 8,9 km/h
22.04.2013 22:00 15,3 C 70 % 1014,8 hPa 0,0 l/m 1,6 km/h N 9,7 C 15,3 C 7,2 km/h
22.04.2013 23:00 14,3 C 72 % 1015,4 hPa 0,0 l/m 3,2 km/h N 9,2 C 14,3 C 11,3 km/h
23.04.2013 00:00 13,9 C 72 % 1016,3 hPa 0,0 l/m 2,4 km/h N 8,9 C 13,9 C 15,3 km/h
23.04.2013 01:00 13,9 C 72 % 1016,7 hPa 0,0 l/m 1,6 km/h N 8,8 C 13,9 C 8,9 km/h
23.04.2013 02:00 13,7 C 71 % 1016,3 hPa 0,0 l/m 3,2 km/h N 8,5 C 13,7 C 13,7 km/h
23.04.2013 03:00 14,6 C 66 % 1015,6 hPa 0,0 l/m 5,6 km/h N 8,3 C 14,1 C 15,3 km/h
23.04.2013 04:00 13,8 C 68 % 1015,7 hPa 0,0 l/m 1,6 km/h N 8,0 C 13,8 C 10,5 km/h
23.04.2013 05:00 13,3 C 72 % 1016,5 hPa 0,0 l/m 3,2 km/h N 8,3 C 13,3 C 10,5 km/h
23.04.2013 06:00 12,9 C 75 % 1017,2 hPa 0,0 l/m 4,0 km/h N 8,5 C 12,9 C 15,3 km/h
23.04.2013 07:00 13,4 C 75 % 1017,8 hPa 0,0 l/m 3,2 km/h N 9,0 C 13,4 C 8,9 km/h
23.04.2013 08:00 15,1 C 70 % 1018,5 hPa 0,0 l/m 5,6 km/h N 9,6 C 15,1 C 17,7 km/h
23.04.2013 09:00 16,6 C 65 % 1019,2 hPa 0,0 l/m 5,6 km/h N 9,9 C 16,7 C 16,9 km/h
23.04.2013 10:00 17,1 C 63 % 1019,5 hPa 0,0 l/m 8,4 km/h N 10,0 C 16,1 C 19,3 km/h
23.04.2013 11:00 18,3 C 61 % 1019,5 hPa 0,0 l/m 8,9 km/h N 10,6 C 17,2 C 20,1 km/h
23.04.2013 12:00 19,0 C 59 % 1019,7 hPa 0,0 l/m 9,4 km/h N 10,7 C 17,8 C 22,5 km/h
23.04.2013 13:00 19,4 C 57 % 1019,9 hPa 0,0 l/m 8,0 km/h N 10,6 C 18,7 C 19,7 km/h
23.04.2013 14:00 20,2 C 55 % 1019,8 hPa 0,0 l/m 5,5 km/h N 10,9 C 20,2 C 16,1 km/h
23.04.2013 15:00 21,0 C 48 % 1019,5 hPa 0,0 l/m 3,9 km/h N 9,6 C 21,0 C 14,9 km/h
23.04.2013 16:00 20,6 C 50 % 1019,4 hPa 0,0 l/m 3,3 km/h N 9,7 C 20,6 C 11,7 km/h
23.04.2013 17:00 20,5 C 50 % 1019,4 hPa 0,0 l/m 0,4 km/h N 9,7 C 20,5 C 4,8 km/h
23.04.2013 18:00 20,1 C 54 % 1019,6 hPa 0,0 l/m 4,9 km/h N 10,5 C 20,1 C 11,7 km/h
23.04.2013 19:00 19,2 C 55 % 1020,0 hPa 0,0 l/m 3,2 km/h N 10,0 C 19,2 C 10,9 km/h
23.04.2013 20:00 17,6 C 58 % 1021,0 hPa 0,0 l/m 0,7 km/h N 9,1 C 17,6 C 8,0 km/h
23.04.2013 21:00 16,1 C 63 % 1021,8 hPa 0,0 l/m 0,1 km/h N 9,0 C 16,1 C 3,2 km/h
23.04.2013 22:00 15,4 C 65 % 1022,4 hPa 0,0 l/m 0,4 km/h N 9,0 C 15,4 C 4,8 km/h
23.04.2013 23:00 14,8 C 67 % 1022,9 hPa 0,0 l/m 1,0 km/h N 8,8 C 14,8 C 5,2 km/h
24.04.2013 00:00 14,1 C 69 % 1023,5 hPa 0,0 l/m 2,0 km/h N 8,5 C 14,1 C 8,0 km/h
24.04.2013 01:00 13,9 C 69 % 1023,8 hPa 0,0 l/m 1,6 km/h N 8,4 C 13,9 C 6,0 km/h
24.04.2013 02:00 14,0 C 69 % 1023,9 hPa 0,0 l/m 1,0 km/h N 8,4 C 14,0 C 5,6 km/h
24.04.2013 03:00 13,4 C 71 % 1024,2 hPa 0,0 l/m 0,9 km/h N 8,1 C 13,4 C 4,8 km/h
24.04.2013 04:00 12,9 C 73 % 1024,7 hPa 0,0 l/m 0,3 km/h N 8,2 C 12,9 C 4,8 km/h
24.04.2013 05:00 11,6 C 77 % 1025,3 hPa 0,0 l/m 0,1 km/h N 7,7 C 11,6 C 1,2 km/h
24.04.2013 06:00 10,1 C 81 % 1025,8 hPa 0,0 l/m 0,0 km/h N 7,0 C 10,1 C 0,4 km/h
24.04.2013 07:00 10,7 C 82 % 1026,3 hPa 0,0 l/m 0,0 km/h N 7,8 C 10,7 C 0,0 km/h
24.04.2013 08:00 14,6 C 76 % 1026,6 hPa 0,0 l/m 0,1 km/h N 10,3 C 14,6 C 1,6 km/h
24.04.2013 09:00 18,5 C 61 % 1026,7 hPa 0,0 l/m 0,9 km/h N 10,9 C 18,5 C 6,0 km/h
24.04.2013 10:00 20,9 C 53 % 1026,6 hPa 0,0 l/m 1,8 km/h N 10,9 C 20,9 C 8,1 km/h
24.04.2013 11:00 22,1 C 48 % 1026,5 hPa 0,0 l/m 2,2 km/h N 10,6 C 22,1 C 9,7 km/h
24.04.2013 12:00 21,7 C 49 % 1026,1 hPa 0,0 l/m 1,8 km/h N 10,5 C 21,7 C 9,3 km/h
24.04.2013 13:00 21,9 C 47 % 1025,6 hPa 0,0 l/m 3,5 km/h N 10,1 C 21,9 C 14,1 km/h
24.04.2013 14:00 23,4 C 45 % 1024,8 hPa 0,0 l/m 4,2 km/h N 10,6 C 23,4 C 15,3 km/h
24.04.2013 15:00 23,2 C 42 % 1024,3 hPa 0,0 l/m 4,8 km/h N 9,7 C 23,2 C 16,1 km/h
24.04.2013 16:00 23,0 C 44 % 1023,7 hPa 0,0 l/m 3,3 km/h N 10,0 C 23,0 C 15,7 km/h
24.04.2013 17:00 22,7 C 44 % 1023,5 hPa 0,0 l/m 3,1 km/h N 9,9 C 22,7 C 12,1 km/h
24.04.2013 18:00 22,2 C 45 % 1023,5 hPa 0,0 l/m 1,8 km/h N 9,6 C 22,2 C 10,5 km/h
24.04.2013 19:00 21,5 C 48 % 1023,4 hPa 0,0 l/m 0,2 km/h N 9,9 C 21,5 C 3,2 km/h
24.04.2013 20:00 18,3 C 57 % 1023,7 hPa 0,0 l/m 0,0 km/h N 9,5 C 18,3 C 0,0 km/h
24.04.2013 21:00 14,7 C 69 % 1024,1 hPa 0,0 l/m 0,0 km/h N 9,0 C 14,7 C 0,0 km/h
24.04.2013 22:00 13,1 C 74 % 1024,0 hPa 0,0 l/m 0,0 km/h N 8,4 C 13,1 C 1,6 km/h
24.04.2013 23:00 13,4 C 72 % 1023,9 hPa 0,0 l/m 0,4 km/h N 8,5 C 13,4 C 4,0 km/h
25.04.2013 00:00 13,7 C 71 % 1023,8 hPa 0,0 l/m 0,2 km/h N 8,4 C 13,7 C 4,8 km/h
25.04.2013 01:00 13,3 C 72 % 1023,8 hPa 0,0 l/m 0,6 km/h N 8,3 C 13,3 C 5,6 km/h
25.04.2013 02:00 12,5 C 74 % 1023,8 hPa 0,0 l/m 0,1 km/h N 8,0 C 12,5 C 2,0 km/h
25.04.2013 03:00 11,9 C 77 % 1023,9 hPa 0,0 l/m 0,1 km/h N 7,9 C 11,9 C 2,8 km/h
25.04.2013 04:00 11,3 C 77 % 1024,0 hPa 0,0 l/m 0,0 km/h N 7,4 C 11,3 C 1,6 km/h
25.04.2013 05:00 10,4 C 81 % 1024,1 hPa 0,0 l/m 0,1 km/h N 7,3 C 10,4 C 2,0 km/h
25.04.2013 06:00 10,7 C 81 % 1024,5 hPa 0,0 l/m 0,0 km/h N 7,6 C 10,7 C 1,6 km/h
25.04.2013 07:00 13,1 C 79 % 1024,7 hPa 0,0 l/m 2,3 km/h N 9,5 C 13,1 C 6,9 km/h
25.04.2013 08:00 18,9 C 59 % 1024,8 hPa 0,0 l/m 7,5 km/h N 10,7 C 18,4 C 19,7 km/h
25.04.2013 09:00 20,4 C 52 % 1025,0 hPa 0,0 l/m 8,4 km/h N 10,1 C 19,6 C 20,9 km/h
25.04.2013 10:00 21,6 C 50 % 1025,1 hPa 0,0 l/m 6,1 km/h N 10,8 C 21,5 C 16,5 km/h
25.04.2013 11:00 22,6 C 46 % 1024,9 hPa 0,0 l/m 5,4 km/h N 10,2 C 22,6 C 15,7 km/h
25.04.2013 12:00 23,5 C 43 % 1024,3 hPa 0,0 l/m 6,1 km/h N 10,0 C 23,4 C 18,5 km/h
25.04.2013 13:00 24,1 C 41 % 1023,5 hPa 0,0 l/m 4,9 km/h N 9,9 C 24,1 C 16,9 km/h
25.04.2013 14:00 24,4 C 40 % 1022,8 hPa 0,0 l/m 7,0 km/h N 9,8 C 24,1 C 19,7 km/h
25.04.2013 15:00 24,5 C 40 % 1022,0 hPa 0,0 l/m 6,7 km/h N 9,9 C 24,4 C 18,5 km/h
25.04.2013 16:00 24,7 C 39 % 1021,5 hPa 0,0 l/m 6,4 km/h N 9,8 C 24,6 C 19,3 km/h
25.04.2013 17:00 24,8 C 38 % 1021,2 hPa 0,0 l/m 4,9 km/h N 9,5 C 24,8 C 15,7 km/h
25.04.2013 18:00 24,6 C 38 % 1020,8 hPa 0,0 l/m 2,9 km/h N 9,1 C 24,6 C 11,7 km/h
25.04.2013 19:00 23,9 C 42 % 1020,4 hPa 0,0 l/m 0,0 km/h N 10,3 C 23,9 C 0,8 km/h
25.04.2013 20:00 20,8 C 52 % 1020,5 hPa 0,0 l/m 0,0 km/h N 10,4 C 20,8 C 0,4 km/h
25.04.2013 21:00 17,1 C 63 % 1020,7 hPa 0,0 l/m 0,0 km/h N 10,0 C 17,1 C 0,0 km/h
25.04.2013 22:00 15,0 C 71 % 1020,5 hPa 0,0 l/m 0,0 km/h N 9,6 C 15,0 C 0,0 km/h
25.04.2013 23:00 13,7 C 74 % 1020,4 hPa 0,0 l/m 0,0 km/h N 9,1 C 13,7 C 0,0 km/h
26.04.2013 00:00 12,5 C 78 % 1019,8 hPa 0,0 l/m 0,0 km/h N 8,7 C 12,5 C 0,0 km/h
26.04.2013 01:00 11,6 C 80 % 1019,1 hPa 0,0 l/m 0,0 km/h N 8,2 C 11,6 C 0,0 km/h
26.04.2013 02:00 10,7 C 82 % 1018,2 hPa 0,0 l/m 0,0 km/h N 7,8 C 10,7 C 0,0 km/h
26.04.2013 03:00 9,9 C 83 % 1017,4 hPa 0,0 l/m 0,0 km/h N 7,2 C 9,9 C 0,0 km/h
26.04.2013 04:00 9,1 C 83 % 1016,8 hPa 0,0 l/m 0,0 km/h N 6,4 C 9,1 C 0,0 km/h
26.04.2013 05:00 8,6 C 82 % 1016,3 hPa 0,0 l/m 0,0 km/h N 5,7 C 8,6 C 0,0 km/h
26.04.2013 06:00 8,4 C 81 % 1015,9 hPa 0,0 l/m 0,0 km/h N 5,4 C 8,4 C 0,0 km/h
26.04.2013 07:00 10,5 C 77 % 1015,6 hPa 0,0 l/m 0,1 km/h N 6,7 C 10,5 C 1,6 km/h
26.04.2013 08:00 14,8 C 78 % 1015,3 hPa 0,0 l/m 0,1 km/h N 10,9 C 14,8 C 2,4 km/h
26.04.2013 09:00 19,7 C 61 % 1014,7 hPa 0,0 l/m 0,4 km/h N 11,8 C 19,7 C 4,0 km/h
26.04.2013 10:00 22,6 C 52 % 1014,1 hPa 0,0 l/m 0,9 km/h N 12,2 C 22,6 C 6,8 km/h
26.04.2013 11:00 24,9 C 47 % 1013,3 hPa 0,0 l/m 1,1 km/h N 12,8 C 24,9 C 7,6 km/h
26.04.2013 12:00 26,1 C 43 % 1012,3 hPa 0,0 l/m 2,0 km/h N 12,4 C 26,1 C 10,4 km/h
26.04.2013 13:00 27,3 C 41 % 1011,1 hPa 0,0 l/m 2,1 km/h N 12,7 C 27,3 C 10,5 km/h
26.04.2013 14:00 28,2 C 36 % 1010,2 hPa 0,0 l/m 4,3 km/h N 11,4 C 28,2 C 15,7 km/h
26.04.2013 15:00 28,0 C 36 % 1008,9 hPa 0,0 l/m 4,5 km/h N 11,4 C 27,9 C 16,5 km/h
26.04.2013 16:00 27,1 C 38 % 1007,9 hPa 0,0 l/m 5,2 km/h N 11,6 C 27,1 C 17,3 km/h
26.04.2013 17:00 26,5 C 39 % 1006,6 hPa 0,0 l/m 4,2 km/h N 11,2 C 26,5 C 15,3 km/h
26.04.2013 18:00 26,3 C 37 % 1005,5 hPa 0,0 l/m 5,7 km/h N 10,3 C 26,2 C 16,9 km/h
26.04.2013 19:00 25,5 C 40 % 1004,5 hPa 0,0 l/m 5,9 km/h N 11,0 C 25,4 C 18,9 km/h
26.04.2013 20:00 23,9 C 43 % 1003,7 hPa 0,0 l/m 4,5 km/h N 10,6 C 23,9 C 12,9 km/h
26.04.2013 21:00 22,0 C 45 % 1003,1 hPa 0,0 l/m 1,8 km/h N 9,5 C 22,0 C 9,3 km/h
26.04.2013 22:00 21,2 C 47 % 1002,2 hPa 0,0 l/m 4,5 km/h N 9,5 C 21,2 C 11,7 km/h
26.04.2013 23:00 20,8 C 49 % 1001,6 hPa 0,0 l/m 1,2 km/h N 9,7 C 20,8 C 6,4 km/h
27.04.2013 00:00 19,7 C 51 % 1001,2 hPa 0,0 l/m 0,5 km/h N 9,2 C 19,7 C 4,8 km/h
27.04.2013 01:00 18,2 C 58 % 1001,0 hPa 0,0 l/m 0,1 km/h N 9,7 C 18,2 C 2,0 km/h
27.04.2013 02:00 17,1 C 62 % 1000,7 hPa 0,0 l/m 0,1 km/h N 9,7 C 17,1 C 1,6 km/h
27.04.2013 03:00 16,0 C 68 % 1000,8 hPa 0,0 l/m 0,0 km/h N 10,1 C 16,0 C 0,8 km/h
27.04.2013 04:00 15,8 C 69 % 1000,8 hPa 0,0 l/m 0,3 km/h N 10,1 C 15,8 C 2,0 km/h
27.04.2013 05:00 15,4 C 74 % 1001,1 hPa 0,0 l/m 0,0 km/h N 10,7 C 15,4 C 0,4 km/h
27.04.2013 06:00 16,1 C 70 % 1001,4 hPa 0,0 l/m 1,2 km/h N 10,5 C 16,1 C 7,7 km/h
27.04.2013 07:00 18,2 C 63 % 1001,4 hPa 0,0 l/m 0,2 km/h N 11,0 C 18,2 C 4,0 km/h
27.04.2013 08:00 18,5 C 66 % 1001,6 hPa 0,0 l/m 0,1 km/h N 11,9 C 18,5 C 2,0 km/h
27.04.2013 09:00 20,5 C 60 % 1001,1 hPa 0,0 l/m 0,5 km/h N 12,4 C 20,5 C 5,6 km/h
27.04.2013 10:00 22,2 C 54 % 1001,1 hPa 0,0 l/m 2,2 km/h N 12,3 C 22,2 C 8,4 km/h
27.04.2013 11:00 23,1 C 49 % 1000,9 hPa 0,0 l/m 2,2 km/h N 11,7 C 23,1 C 8,4 km/h
27.04.2013 12:00 25,5 C 41 % 1000,3 hPa 0,0 l/m 6,5 km/h N 11,1 C 25,3 C 23,7 km/h
27.04.2013 13:00 26,3 C 38 % 1000,0 hPa 0,0 l/m 7,3 km/h N 10,8 C 26,1 C 24,9 km/h
27.04.2013 14:00 25,6 C 38 % 1000,1 hPa 0,0 l/m 8,8 km/h N 10,1 C 25,0 C 25,3 km/h
27.04.2013 15:00 24,5 C 40 % 1000,4 hPa 0,0 l/m 9,8 km/h N 10,1 C 23,7 C 27,8 km/h
27.04.2013 16:00 23,5 C 43 % 1000,6 hPa 0,0 l/m 9,6 km/h N 10,3 C 22,7 C 26,6 km/h
27.04.2013 17:00 22,7 C 45 % 1000,8 hPa 0,0 l/m 11,0 km/h N 10,0 C 21,3 C 31,0 km/h
27.04.2013 18:00 21,9 C 46 % 1000,8 hPa 0,0 l/m 7,5 km/h N 9,8 C 21,5 C 21,3 km/h
27.04.2013 19:00 20,9 C 49 % 1000,8 hPa 0,0 l/m 7,4 km/h N 9,7 C 20,6 C 22,1 km/h
27.04.2013 20:00 20,1 C 52 % 1000,8 hPa 0,0 l/m 13,0 km/h N 9,8 C 17,9 C 32,6 km/h
27.04.2013 21:00 19,5 C 55 % 1001,5 hPa 0,0 l/m 10,3 km/h N 10,1 C 18,1 C 28,5 km/h
27.04.2013 22:00 19,0 C 57 % 1001,9 hPa 0,0 l/m 4,6 km/h N 10,3 C 19,0 C 16,5 km/h
27.04.2013 23:00 18,6 C 59 % 1001,7 hPa 0,0 l/m 6,8 km/h N 10,3 C 18,4 C 20,1 km/h
28.04.2013 00:00 18,2 C 60 % 1001,6 hPa 0,0 l/m 5,3 km/h N 10,2 C 17,8 C 14,5 km/h
28.04.2013 01:00 17,5 C 62 % 1001,3 hPa 0,0 l/m 2,3 km/h N 10,0 C 17,5 C 10,5 km/h
28.04.2013 02:00 17,0 C 64 % 1001,5 hPa 0,0 l/m 2,0 km/h N 10,0 C 17,0 C 8,1 km/h
28.04.2013 03:00 16,5 C 66 % 1001,8 hPa 0,0 l/m 0,6 km/h N 10,0 C 16,5 C 2,8 km/h
28.04.2013 04:00 15,0 C 73 % 1002,3 hPa 0,0 l/m 0,0 km/h N 10,2 C 15,0 C 0,0 km/h
28.04.2013 05:00 14,6 C 75 % 1003,3 hPa 0,0 l/m 1,7 km/h N 10,2 C 14,6 C 7,6 km/h
28.04.2013 06:00 15,3 C 73 % 1004,7 hPa 0,0 l/m 8,1 km/h N 10,5 C 14,4 C 19,7 km/h
28.04.2013 07:00 15,5 C 76 % 1005,8 hPa 0,0 l/m 10,8 km/h N 11,2 C 13,4 C 27,8 km/h
28.04.2013 08:00 15,9 C 72 % 1007,0 hPa 0,0 l/m 12,8 km/h N 11,0 C 13,1 C 31,8 km/h
28.04.2013 09:00 16,8 C 70 % 1008,3 hPa 0,0 l/m 11,8 km/h N 11,2 C 14,5 C 26,2 km/h
28.04.2013 10:00 18,1 C 63 % 1009,3 hPa 0,0 l/m 8,8 km/h N 10,9 C 17,1 C 24,1 km/h
28.04.2013 11:00 19,7 C 58 % 1009,8 hPa 0,0 l/m 10,7 km/h N 11,0 C 18,1 C 23,3 km/h
28.04.2013 12:00 20,1 C 56 % 1010,3 hPa 0,0 l/m 9,9 km/h N 11,0 C 18,8 C 23,7 km/h
28.04.2013 13:00 20,2 C 54 % 1010,8 hPa 0,0 l/m 9,6 km/h N 10,7 C 19,0 C 22,1 km/h
28.04.2013 14:00 21,4 C 51 % 1011,0 hPa 0,0 l/m 5,6 km/h N 10,9 C 21,3 C 16,5 km/h
28.04.2013 15:00 22,1 C 52 % 1011,2 hPa 0,0 l/m 3,5 km/h N 11,7 C 22,1 C 12,9 km/h
28.04.2013 16:00 20,6 C 58 % 1011,9 hPa 0,0 l/m 4,8 km/h N 12,1 C 20,6 C 18,1 km/h
28.04.2013 17:00 20,0 C 58 % 1012,3 hPa 0,0 l/m 5,5 km/h N 11,4 C 19,9 C 16,9 km/h
28.04.2013 18:00 18,9 C 60 % 1012,8 hPa 0,0 l/m 5,3 km/h N 11,0 C 18,9 C 14,9 km/h
28.04.2013 19:00 18,1 C 63 % 1013,3 hPa 0,0 l/m 5,0 km/h N 10,9 C 18,1 C 14,9 km/h
28.04.2013 20:00 16,4 C 68 % 1014,0 hPa 0,0 l/m 4,5 km/h N 10,4 C 16,4 C 12,9 km/h
28.04.2013 21:00 15,0 C 73 % 1014,8 hPa 0,0 l/m 1,8 km/h N 10,1 C 15,0 C 10,1 km/h
28.04.2013 22:00 13,9 C 76 % 1014,9 hPa 0,0 l/m 0,3 km/h N 9,8 C 13,9 C 4,4 km/h
28.04.2013 23:00 12,6 C 79 % 1015,0 hPa 0,0 l/m 0,0 km/h N 9,0 C 12,6 C 0,0 km/h
Min-Datum _ 22.04.13 26.04.13 27.04.13 - 22.04.13 - 22.04.13 22.04.13 22.04.13
_ Min-Zeit 05:45 14:45 13:45 - 00:00 - 05:45 05:45 00:00
Minimum _ 6,7 C 33 % 999,8 hPa - 0,0 km/h - 3,7 C 6,7 C 0,0 km/h
Max-Datum _ 26.04.13 22.04.13 24.04.13 22.04.13 28.04.13 - 26.04.13 26.04.13 27.04.13
_ Max-Zeit 15:00 01:30 09:15 00:00 08:00 - 13:30 15:00 21:00
Maximum _ 28,4 C 83 % 1026,8 hPa 0,0 l/m 15,8 km/h
N
- 13,1 C 28,4 C 40,2 km/h
N
Durchschnitt _ 17,8 C 60 % 1014,5 hPa #0,0 l/m 3,0 km/h N 9,6 C 17,6 C 10,2 km/h